sensor_id;sensor_type;location;lat;lon;timestamp;pressure;altitude;pressure_sealevel;temperature
25514;BMP180;48128;54.242;10.280;2022-12-29T00:03:51;99460.00;;;7.30
25514;BMP180;48128;54.242;10.280;2022-12-29T00:06:18;99467.00;;;7.30
25514;BMP180;48128;54.242;10.280;2022-12-29T00:08:45;99461.00;;;7.30
25514;BMP180;48128;54.242;10.280;2022-12-29T00:11:19;99457.00;;;7.40
25514;BMP180;48128;54.242;10.280;2022-12-29T00:13:46;99440.00;;;7.40
25514;BMP180;48128;54.242;10.280;2022-12-29T00:16:33;99454.00;;;7.40
25514;BMP180;48128;54.242;10.280;2022-12-29T00:19:00;99446.00;;;7.40
25514;BMP180;48128;54.242;10.280;2022-12-29T00:21:28;99447.00;;;7.50
25514;BMP180;48128;54.242;10.280;2022-12-29T00:24:15;99435.00;;;7.50
25514;BMP180;48128;54.242;10.280;2022-12-29T00:29:47;99434.00;;;7.50
25514;BMP180;48128;54.242;10.280;2022-12-29T00:32:33;99420.00;;;7.50
25514;BMP180;48128;54.242;10.280;2022-12-29T00:35:42;99418.00;;;7.50
25514;BMP180;48128;54.242;10.280;2022-12-29T00:38:10;99412.00;;;7.50
25514;BMP180;48128;54.242;10.280;2022-12-29T00:40:55;99427.00;;;7.60
25514;BMP180;48128;54.242;10.280;2022-12-29T00:43:41;99421.00;;;7.60
25514;BMP180;48128;54.242;10.280;2022-12-29T00:46:27;99427.00;;;7.60
25514;BMP180;48128;54.242;10.280;2022-12-29T00:48:53;99412.00;;;7.60
25514;BMP180;48128;54.242;10.280;2022-12-29T00:51:39;99414.00;;;7.60
25514;BMP180;48128;54.242;10.280;2022-12-29T00:54:06;99418.00;;;7.70
25514;BMP180;48128;54.242;10.280;2022-12-29T00:56:33;99412.00;;;7.70
25514;BMP180;48128;54.242;10.280;2022-12-29T00:59:01;99419.00;;;7.70
25514;BMP180;48128;54.242;10.280;2022-12-29T01:01:28;99415.00;;;7.70
25514;BMP180;48128;54.242;10.280;2022-12-29T01:03:55;99415.00;;;7.70
25514;BMP180;48128;54.242;10.280;2022-12-29T01:06:29;99416.00;;;7.80
25514;BMP180;48128;54.242;10.280;2022-12-29T01:08:56;99422.00;;;7.80
25514;BMP180;48128;54.242;10.280;2022-12-29T01:11:41;99421.00;;;7.80
25514;BMP180;48128;54.242;10.280;2022-12-29T01:14:08;99404.00;;;7.80
25514;BMP180;48128;54.242;10.280;2022-12-29T01:16:35;99401.00;;;7.80
25514;BMP180;48128;54.242;10.280;2022-12-29T01:19:05;99392.00;;;7.90
25514;BMP180;48128;54.242;10.280;2022-12-29T01:21:33;99397.00;;;7.90
25514;BMP180;48128;54.242;10.280;2022-12-29T01:23:59;99399.00;;;7.90
25514;BMP180;48128;54.242;10.280;2022-12-29T01:26:26;99388.00;;;7.90
25514;BMP180;48128;54.242;10.280;2022-12-29T01:28:53;99394.00;;;7.90
25514;BMP180;48128;54.242;10.280;2022-12-29T01:31:20;99384.00;;;7.90
25514;BMP180;48128;54.242;10.280;2022-12-29T01:33:47;99388.00;;;7.90
25514;BMP180;48128;54.242;10.280;2022-12-29T01:36:15;99391.00;;;7.90
25514;BMP180;48128;54.242;10.280;2022-12-29T01:38:42;99394.00;;;8.00
25514;BMP180;48128;54.242;10.280;2022-12-29T01:41:11;99388.00;;;8.00
25514;BMP180;48128;54.242;10.280;2022-12-29T01:46:24;99381.00;;;8.00
25514;BMP180;48128;54.242;10.280;2022-12-29T01:48:55;99385.00;;;8.00
25514;BMP180;48128;54.242;10.280;2022-12-29T01:51:25;99381.00;;;8.00
25514;BMP180;48128;54.242;10.280;2022-12-29T01:53:53;99372.00;;;8.00
25514;BMP180;48128;54.242;10.280;2022-12-29T01:56:22;99374.00;;;8.00
25514;BMP180;48128;54.242;10.280;2022-12-29T01:58:54;99377.00;;;8.00
25514;BMP180;48128;54.242;10.280;2022-12-29T02:01:22;99371.00;;;8.10
25514;BMP180;48128;54.242;10.280;2022-12-29T02:03:49;99359.00;;;8.10
25514;BMP180;48128;54.242;10.280;2022-12-29T02:06:21;99357.00;;;8.10
25514;BMP180;48128;54.242;10.280;2022-12-29T02:08:50;99360.00;;;8.10
25514;BMP180;48128;54.242;10.280;2022-12-29T02:11:17;99343.00;;;8.10
25514;BMP180;48128;54.242;10.280;2022-12-29T02:13:44;99332.00;;;8.10
25514;BMP180;48128;54.242;10.280;2022-12-29T02:16:37;99339.00;;;8.10
25514;BMP180;48128;54.242;10.280;2022-12-29T02:25:00;99332.00;;;8.10
25514;BMP180;48128;54.242;10.280;2022-12-29T02:39:56;99309.00;;;8.30
25514;BMP180;48128;54.242;10.280;2022-12-29T02:45:47;99307.00;;;8.30
25514;BMP180;48128;54.242;10.280;2022-12-29T02:48:28;99311.00;;;8.30
25514;BMP180;48128;54.242;10.280;2022-12-29T02:51:04;99298.00;;;8.30
25514;BMP180;48128;54.242;10.280;2022-12-29T02:53:34;99289.00;;;8.30
25514;BMP180;48128;54.242;10.280;2022-12-29T02:56:21;99287.00;;;8.30
25514;BMP180;48128;54.242;10.280;2022-12-29T02:58:47;99281.00;;;8.30
25514;BMP180;48128;54.242;10.280;2022-12-29T03:10:01;99276.00;;;8.40
25514;BMP180;48128;54.242;10.280;2022-12-29T03:15:21;99271.00;;;8.40
25514;BMP180;48128;54.242;10.280;2022-12-29T03:18:13;99269.00;;;8.40
25514;BMP180;48128;54.242;10.280;2022-12-29T03:20:49;99270.00;;;8.40
25514;BMP180;48128;54.242;10.280;2022-12-29T03:23:17;99262.00;;;8.50
25514;BMP180;48128;54.242;10.280;2022-12-29T03:25:48;99265.00;;;8.50
25514;BMP180;48128;54.242;10.280;2022-12-29T03:28:25;99261.00;;;8.50
25514;BMP180;48128;54.242;10.280;2022-12-29T03:30:53;99248.00;;;8.50
25514;BMP180;48128;54.242;10.280;2022-12-29T03:33:23;99251.00;;;8.50
25514;BMP180;48128;54.242;10.280;2022-12-29T03:35:51;99259.00;;;8.60
25514;BMP180;48128;54.242;10.280;2022-12-29T03:38:23;99250.00;;;8.60
25514;BMP180;48128;54.242;10.280;2022-12-29T03:40:54;99256.00;;;8.60
25514;BMP180;48128;54.242;10.280;2022-12-29T03:43:22;99242.00;;;8.70
25514;BMP180;48128;54.242;10.280;2022-12-29T03:45:49;99243.00;;;8.70
25514;BMP180;48128;54.242;10.280;2022-12-29T03:48:16;99249.00;;;8.70
25514;BMP180;48128;54.242;10.280;2022-12-29T03:50:43;99248.00;;;8.70
25514;BMP180;48128;54.242;10.280;2022-12-29T03:53:10;99251.00;;;8.70
25514;BMP180;48128;54.242;10.280;2022-12-29T03:55:37;99251.00;;;8.70
25514;BMP180;48128;54.242;10.280;2022-12-29T03:58:04;99243.00;;;8.70
25514;BMP180;48128;54.242;10.280;2022-12-29T04:00:31;99227.00;;;8.70
25514;BMP180;48128;54.242;10.280;2022-12-29T04:02:58;99236.00;;;8.70
25514;BMP180;48128;54.242;10.280;2022-12-29T04:05:25;99237.00;;;8.70
25514;BMP180;48128;54.242;10.280;2022-12-29T04:07:52;99234.00;;;8.70
25514;BMP180;48128;54.242;10.280;2022-12-29T04:10:19;99226.00;;;8.80
25514;BMP180;48128;54.242;10.280;2022-12-29T04:12:45;99219.00;;;8.80
25514;BMP180;48128;54.242;10.280;2022-12-29T04:15:13;99210.00;;;8.80
25514;BMP180;48128;54.242;10.280;2022-12-29T04:17:40;99213.00;;;8.80
25514;BMP180;48128;54.242;10.280;2022-12-29T04:20:07;99205.00;;;8.90
25514;BMP180;48128;54.242;10.280;2022-12-29T04:23:05;99214.00;;;8.90
25514;BMP180;48128;54.242;10.280;2022-12-29T04:25:33;99214.00;;;8.90
25514;BMP180;48128;54.242;10.280;2022-12-29T04:28:00;99201.00;;;9.00
25514;BMP180;48128;54.242;10.280;2022-12-29T04:30:27;99200.00;;;9.00
25514;BMP180;48128;54.242;10.280;2022-12-29T04:32:54;99207.00;;;9.00
25514;BMP180;48128;54.242;10.280;2022-12-29T04:35:21;99185.00;;;9.00
25514;BMP180;48128;54.242;10.280;2022-12-29T04:37:48;99186.00;;;9.00
25514;BMP180;48128;54.242;10.280;2022-12-29T04:40:14;99179.00;;;9.00
25514;BMP180;48128;54.242;10.280;2022-12-29T04:42:42;99179.00;;;9.00
25514;BMP180;48128;54.242;10.280;2022-12-29T04:45:09;99185.00;;;9.00
25514;BMP180;48128;54.242;10.280;2022-12-29T04:47:36;99178.00;;;9.00
25514;BMP180;48128;54.242;10.280;2022-12-29T04:50:03;99171.00;;;9.00
25514;BMP180;48128;54.242;10.280;2022-12-29T04:52:30;99180.00;;;9.00
25514;BMP180;48128;54.242;10.280;2022-12-29T04:54:57;99183.00;;;9.00
25514;BMP180;48128;54.242;10.280;2022-12-29T04:57:24;99166.00;;;9.00
25514;BMP180;48128;54.242;10.280;2022-12-29T04:59:51;99162.00;;;9.00
25514;BMP180;48128;54.242;10.280;2022-12-29T05:02:18;99145.00;;;9.00
25514;BMP180;48128;54.242;10.280;2022-12-29T05:04:45;99159.00;;;9.00
25514;BMP180;48128;54.242;10.280;2022-12-29T05:07:13;99163.00;;;9.10
25514;BMP180;48128;54.242;10.280;2022-12-29T05:09:39;99160.00;;;9.10
25514;BMP180;48128;54.242;10.280;2022-12-29T05:12:06;99149.00;;;9.10
25514;BMP180;48128;54.242;10.280;2022-12-29T05:14:33;99162.00;;;9.10
25514;BMP180;48128;54.242;10.280;2022-12-29T05:17:00;99156.00;;;9.20
25514;BMP180;48128;54.242;10.280;2022-12-29T05:19:27;99138.00;;;9.20
25514;BMP180;48128;54.242;10.280;2022-12-29T05:21:54;99135.00;;;9.20
25514;BMP180;48128;54.242;10.280;2022-12-29T05:24:21;99144.00;;;9.20
25514;BMP180;48128;54.242;10.280;2022-12-29T05:26:48;99138.00;;;9.30
25514;BMP180;48128;54.242;10.280;2022-12-29T05:29:14;99147.00;;;9.30
25514;BMP180;48128;54.242;10.280;2022-12-29T05:31:43;99140.00;;;9.30
25514;BMP180;48128;54.242;10.280;2022-12-29T05:34:11;99129.00;;;9.20
25514;BMP180;48128;54.242;10.280;2022-12-29T05:36:38;99143.00;;;9.20
25514;BMP180;48128;54.242;10.280;2022-12-29T05:39:05;99131.00;;;9.20
25514;BMP180;48128;54.242;10.280;2022-12-29T05:41:34;99148.00;;;9.10
25514;BMP180;48128;54.242;10.280;2022-12-29T05:44:01;99144.00;;;9.10
25514;BMP180;48128;54.242;10.280;2022-12-29T05:46:28;99144.00;;;9.10
25514;BMP180;48128;54.242;10.280;2022-12-29T05:48:55;99140.00;;;9.10
25514;BMP180;48128;54.242;10.280;2022-12-29T05:51:21;99139.00;;;9.00
25514;BMP180;48128;54.242;10.280;2022-12-29T05:53:48;99129.00;;;9.00
25514;BMP180;48128;54.242;10.280;2022-12-29T05:56:15;99146.00;;;9.00
25514;BMP180;48128;54.242;10.280;2022-12-29T05:58:43;99149.00;;;9.00
25514;BMP180;48128;54.242;10.280;2022-12-29T06:01:10;99150.00;;;9.00
25514;BMP180;48128;54.242;10.280;2022-12-29T06:03:36;99148.00;;;9.00
25514;BMP180;48128;54.242;10.280;2022-12-29T06:06:10;99165.00;;;9.00
25514;BMP180;48128;54.242;10.280;2022-12-29T06:08:36;99156.00;;;9.00
25514;BMP180;48128;54.242;10.280;2022-12-29T06:11:03;99161.00;;;9.00
25514;BMP180;48128;54.242;10.280;2022-12-29T06:13:30;99158.00;;;9.00
25514;BMP180;48128;54.242;10.280;2022-12-29T06:15:57;99158.00;;;9.00
25514;BMP180;48128;54.242;10.280;2022-12-29T06:18:24;99173.00;;;9.00
25514;BMP180;48128;54.242;10.280;2022-12-29T06:20:51;99172.00;;;9.00
25514;BMP180;48128;54.242;10.280;2022-12-29T06:23:18;99185.00;;;9.00
25514;BMP180;48128;54.242;10.280;2022-12-29T06:25:46;99177.00;;;9.00
25514;BMP180;48128;54.242;10.280;2022-12-29T06:28:13;99180.00;;;9.00
25514;BMP180;48128;54.242;10.280;2022-12-29T06:30:43;99178.00;;;9.00
25514;BMP180;48128;54.242;10.280;2022-12-29T06:33:12;99174.00;;;9.00
25514;BMP180;48128;54.242;10.280;2022-12-29T06:35:39;99178.00;;;9.00
25514;BMP180;48128;54.242;10.280;2022-12-29T06:38:07;99173.00;;;9.00
25514;BMP180;48128;54.242;10.280;2022-12-29T06:40:34;99179.00;;;9.00
25514;BMP180;48128;54.242;10.280;2022-12-29T06:43:01;99183.00;;;9.00
25514;BMP180;48128;54.242;10.280;2022-12-29T06:45:28;99179.00;;;9.00
25514;BMP180;48128;54.242;10.280;2022-12-29T06:47:55;99169.00;;;9.00
25514;BMP180;48128;54.242;10.280;2022-12-29T06:50:22;99179.00;;;9.00
25514;BMP180;48128;54.242;10.280;2022-12-29T06:52:49;99171.00;;;9.00
25514;BMP180;48128;54.242;10.280;2022-12-29T06:55:16;99166.00;;;9.00
25514;BMP180;48128;54.242;10.280;2022-12-29T06:57:43;99166.00;;;9.00
25514;BMP180;48128;54.242;10.280;2022-12-29T07:00:10;99173.00;;;9.00
25514;BMP180;48128;54.242;10.280;2022-12-29T07:02:37;99173.00;;;9.00
25514;BMP180;48128;54.242;10.280;2022-12-29T07:05:04;99172.00;;;9.00
25514;BMP180;48128;54.242;10.280;2022-12-29T07:07:31;99161.00;;;9.00
25514;BMP180;48128;54.242;10.280;2022-12-29T07:09:58;99153.00;;;9.00
25514;BMP180;48128;54.242;10.280;2022-12-29T07:12:25;99146.00;;;9.00
25514;BMP180;48128;54.242;10.280;2022-12-29T07:14:52;99155.00;;;9.00
25514;BMP180;48128;54.242;10.280;2022-12-29T07:17:18;99156.00;;;8.90
25514;BMP180;48128;54.242;10.280;2022-12-29T07:19:45;99157.00;;;8.90
25514;BMP180;48128;54.242;10.280;2022-12-29T07:22:12;99147.00;;;8.80
25514;BMP180;48128;54.242;10.280;2022-12-29T07:24:39;99155.00;;;8.80
25514;BMP180;48128;54.242;10.280;2022-12-29T07:27:06;99168.00;;;8.80
25514;BMP180;48128;54.242;10.280;2022-12-29T07:29:33;99167.00;;;8.80
25514;BMP180;48128;54.242;10.280;2022-12-29T07:32:00;99176.00;;;8.90
25514;BMP180;48128;54.242;10.280;2022-12-29T07:34:27;99179.00;;;8.90
25514;BMP180;48128;54.242;10.280;2022-12-29T07:36:54;99181.00;;;8.90
25514;BMP180;48128;54.242;10.280;2022-12-29T07:39:20;99184.00;;;8.90
25514;BMP180;48128;54.242;10.280;2022-12-29T07:41:47;99180.00;;;8.90
25514;BMP180;48128;54.242;10.280;2022-12-29T07:44:14;99182.00;;;8.90
25514;BMP180;48128;54.242;10.280;2022-12-29T07:46:43;99185.00;;;8.90
25514;BMP180;48128;54.242;10.280;2022-12-29T07:49:23;99199.00;;;9.00
25514;BMP180;48128;54.242;10.280;2022-12-29T07:51:50;99199.00;;;9.00
25514;BMP180;48128;54.242;10.280;2022-12-29T07:54:17;99205.00;;;9.00
25514;BMP180;48128;54.242;10.280;2022-12-29T07:56:46;99193.00;;;9.10
25514;BMP180;48128;54.242;10.280;2022-12-29T07:59:13;99195.00;;;9.10
25514;BMP180;48128;54.242;10.280;2022-12-29T08:01:40;99200.00;;;9.10
25514;BMP180;48128;54.242;10.280;2022-12-29T08:04:07;99202.00;;;9.10
25514;BMP180;48128;54.242;10.280;2022-12-29T08:06:34;99197.00;;;9.10
25514;BMP180;48128;54.242;10.280;2022-12-29T08:09:01;99208.00;;;9.10
25514;BMP180;48128;54.242;10.280;2022-12-29T08:11:38;99211.00;;;9.10
25514;BMP180;48128;54.242;10.280;2022-12-29T08:14:05;99208.00;;;9.10
25514;BMP180;48128;54.242;10.280;2022-12-29T08:16:31;99209.00;;;9.20
25514;BMP180;48128;54.242;10.280;2022-12-29T08:18:59;99209.00;;;9.20
25514;BMP180;48128;54.242;10.280;2022-12-29T08:21:29;99218.00;;;9.20
25514;BMP180;48128;54.242;10.280;2022-12-29T08:23:56;99223.00;;;9.20
25514;BMP180;48128;54.242;10.280;2022-12-29T08:26:23;99219.00;;;9.20
25514;BMP180;48128;54.242;10.280;2022-12-29T08:28:52;99224.00;;;9.20
25514;BMP180;48128;54.242;10.280;2022-12-29T08:31:19;99234.00;;;9.20
25514;BMP180;48128;54.242;10.280;2022-12-29T08:33:46;99218.00;;;9.20
25514;BMP180;48128;54.242;10.280;2022-12-29T08:36:13;99220.00;;;9.20
25514;BMP180;48128;54.242;10.280;2022-12-29T08:38:40;99227.00;;;9.20
25514;BMP180;48128;54.242;10.280;2022-12-29T08:41:07;99212.00;;;9.10
25514;BMP180;48128;54.242;10.280;2022-12-29T08:43:34;99222.00;;;9.10
25514;BMP180;48128;54.242;10.280;2022-12-29T08:46:01;99208.00;;;9.10
25514;BMP180;48128;54.242;10.280;2022-12-29T08:48:28;99221.00;;;9.10
25514;BMP180;48128;54.242;10.280;2022-12-29T08:50:55;99196.00;;;9.20
25514;BMP180;48128;54.242;10.280;2022-12-29T08:53:22;99209.00;;;9.30
25514;BMP180;48128;54.242;10.280;2022-12-29T08:55:55;99220.00;;;9.40
25514;BMP180;48128;54.242;10.280;2022-12-29T08:58:30;99201.00;;;9.40
25514;BMP180;48128;54.242;10.280;2022-12-29T09:00:57;99208.00;;;9.50
25514;BMP180;48128;54.242;10.280;2022-12-29T09:03:24;99201.00;;;9.50
25514;BMP180;48128;54.242;10.280;2022-12-29T09:06:12;99202.00;;;9.60
25514;BMP180;48128;54.242;10.280;2022-12-29T09:08:39;99196.00;;;9.60
25514;BMP180;48128;54.242;10.280;2022-12-29T09:11:12;99206.00;;;9.60
25514;BMP180;48128;54.242;10.280;2022-12-29T09:13:39;99205.00;;;9.60
25514;BMP180;48128;54.242;10.280;2022-12-29T09:16:06;99201.00;;;9.50
25514;BMP180;48128;54.242;10.280;2022-12-29T09:18:33;99201.00;;;9.50
25514;BMP180;48128;54.242;10.280;2022-12-29T09:21:02;99216.00;;;9.50
25514;BMP180;48128;54.242;10.280;2022-12-29T09:23:30;99198.00;;;9.50
25514;BMP180;48128;54.242;10.280;2022-12-29T09:25:57;99203.00;;;9.50
25514;BMP180;48128;54.242;10.280;2022-12-29T09:28:24;99213.00;;;9.60
25514;BMP180;48128;54.242;10.280;2022-12-29T09:30:51;99216.00;;;9.60
25514;BMP180;48128;54.242;10.280;2022-12-29T09:33:18;99220.00;;;9.70
25514;BMP180;48128;54.242;10.280;2022-12-29T09:35:49;99223.00;;;9.70
25514;BMP180;48128;54.242;10.280;2022-12-29T09:38:16;99223.00;;;9.70
25514;BMP180;48128;54.242;10.280;2022-12-29T09:40:52;99231.00;;;9.70
25514;BMP180;48128;54.242;10.280;2022-12-29T09:43:43;99227.00;;;9.70
25514;BMP180;48128;54.242;10.280;2022-12-29T09:46:19;99228.00;;;9.70
25514;BMP180;48128;54.242;10.280;2022-12-29T09:51:39;99235.00;;;9.70
25514;BMP180;48128;54.242;10.280;2022-12-29T09:57:00;99251.00;;;9.70
25514;BMP180;48128;54.242;10.280;2022-12-29T09:59:41;99253.00;;;9.70
25514;BMP180;48128;54.242;10.280;2022-12-29T10:10:57;99236.00;;;9.40
25514;BMP180;48128;54.242;10.280;2022-12-29T10:14:09;99224.00;;;9.40
25514;BMP180;48128;54.242;10.280;2022-12-29T10:16:20;99239.00;;;9.30
25514;BMP180;48128;54.242;10.280;2022-12-29T10:19:01;99218.00;;;9.30
25514;BMP180;48128;54.242;10.280;2022-12-29T10:21:43;99217.00;;;9.30
25514;BMP180;48128;54.242;10.280;2022-12-29T10:24:13;99226.00;;;9.30
25514;BMP180;48128;54.242;10.280;2022-12-29T10:26:42;99221.00;;;9.40
25514;BMP180;48128;54.242;10.280;2022-12-29T10:29:20;99207.00;;;9.50
25514;BMP180;48128;54.242;10.280;2022-12-29T10:34:41;99216.00;;;9.60
25514;BMP180;48128;54.242;10.280;2022-12-29T10:37:14;99234.00;;;9.70
25514;BMP180;48128;54.242;10.280;2022-12-29T10:39:46;99228.00;;;9.80
25514;BMP180;48128;54.242;10.280;2022-12-29T10:42:26;99244.00;;;9.90
25514;BMP180;48128;54.242;10.280;2022-12-29T10:44:54;99225.00;;;10.00
25514;BMP180;48128;54.242;10.280;2022-12-29T10:47:28;99225.00;;;10.10
25514;BMP180;48128;54.242;10.280;2022-12-29T10:49:56;99234.00;;;10.10
25514;BMP180;48128;54.242;10.280;2022-12-29T10:52:25;99228.00;;;10.20
25514;BMP180;48128;54.242;10.280;2022-12-29T10:55:04;99237.00;;;10.40
25514;BMP180;48128;54.242;10.280;2022-12-29T10:57:39;99239.00;;;10.50
25514;BMP180;48128;54.242;10.280;2022-12-29T11:00:18;99245.00;;;10.60
25514;BMP180;48128;54.242;10.280;2022-12-29T11:08:08;99256.00;;;10.50
25514;BMP180;48128;54.242;10.280;2022-12-29T11:10:40;99245.00;;;10.40
25514;BMP180;48128;54.242;10.280;2022-12-29T11:13:17;99253.00;;;10.40
25514;BMP180;48128;54.242;10.280;2022-12-29T11:15:49;99255.00;;;10.30
25514;BMP180;48128;54.242;10.280;2022-12-29T11:18:27;99231.00;;;10.30
25514;BMP180;48128;54.242;10.280;2022-12-29T11:20:59;99240.00;;;10.30
25514;BMP180;48128;54.242;10.280;2022-12-29T11:23:36;99232.00;;;10.20
25514;BMP180;48128;54.242;10.280;2022-12-29T11:28:37;99246.00;;;10.20
25514;BMP180;48128;54.242;10.280;2022-12-29T11:31:06;99242.00;;;10.10
25514;BMP180;48128;54.242;10.280;2022-12-29T11:33:38;99234.00;;;10.10
25514;BMP180;48128;54.242;10.280;2022-12-29T11:36:20;99228.00;;;10.00
25514;BMP180;48128;54.242;10.280;2022-12-29T11:38:51;99230.00;;;10.00
25514;BMP180;48128;54.242;10.280;2022-12-29T11:41:23;99231.00;;;10.00
25514;BMP180;48128;54.242;10.280;2022-12-29T11:43:53;99236.00;;;9.90
25514;BMP180;48128;54.242;10.280;2022-12-29T11:46:26;99232.00;;;9.90
25514;BMP180;48128;54.242;10.280;2022-12-29T11:48:54;99244.00;;;9.90
25514;BMP180;48128;54.242;10.280;2022-12-29T11:54:25;99252.00;;;9.80
25514;BMP180;48128;54.242;10.280;2022-12-29T11:56:53;99234.00;;;9.80
25514;BMP180;48128;54.242;10.280;2022-12-29T12:00:13;99233.00;;;9.80
25514;BMP180;48128;54.242;10.280;2022-12-29T12:02:23;99238.00;;;9.80
25514;BMP180;48128;54.242;10.280;2022-12-29T12:04:56;99240.00;;;9.80
25514;BMP180;48128;54.242;10.280;2022-12-29T12:07:44;99250.00;;;9.70
25514;BMP180;48128;54.242;10.280;2022-12-29T12:10:23;99256.00;;;9.70
25514;BMP180;48128;54.242;10.280;2022-12-29T12:15:27;99218.00;;;9.70
25514;BMP180;48128;54.242;10.280;2022-12-29T12:18:24;99218.00;;;9.70
25514;BMP180;48128;54.242;10.280;2022-12-29T12:21:18;99228.00;;;9.70
25514;BMP180;48128;54.242;10.280;2022-12-29T12:29:12;99264.00;;;9.80
25514;BMP180;48128;54.242;10.280;2022-12-29T12:31:54;99253.00;;;9.80
25514;BMP180;48128;54.242;10.280;2022-12-29T12:34:40;99267.00;;;9.80
25514;BMP180;48128;54.242;10.280;2022-12-29T12:40:02;99260.00;;;9.70
25514;BMP180;48128;54.242;10.280;2022-12-29T12:45:45;99250.00;;;9.60
25514;BMP180;48128;54.242;10.280;2022-12-29T12:54:46;99230.00;;;9.40
25514;BMP180;48128;54.242;10.280;2022-12-29T12:57:18;99239.00;;;9.30
25514;BMP180;48128;54.242;10.280;2022-12-29T13:00:08;99244.00;;;9.20
25514;BMP180;48128;54.242;10.280;2022-12-29T13:05:38;99250.00;;;9.10
25514;BMP180;48128;54.242;10.280;2022-12-29T13:11:01;99244.00;;;9.00
25514;BMP180;48128;54.242;10.280;2022-12-29T13:30:44;99270.00;;;8.70
25514;BMP180;48128;54.242;10.280;2022-12-29T13:36:03;99284.00;;;8.80
25514;BMP180;48128;54.242;10.280;2022-12-29T13:38:40;99283.00;;;8.80
25514;BMP180;48128;54.242;10.280;2022-12-29T13:43:55;99300.00;;;8.80
25514;BMP180;48128;54.242;10.280;2022-12-29T13:46:33;99322.00;;;8.80
25514;BMP180;48128;54.242;10.280;2022-12-29T13:49:10;99321.00;;;8.70
